sensor_id;sensor_type;location;lat;lon;timestamp;P1;durP1;ratioP1;P2;durP2;ratioP2
36445;SDS011;22472;50.848;-1.216;2023-06-26T00:02:06;7.70;;;1.23;;
36445;SDS011;22472;50.848;-1.216;2023-06-26T00:04:34;11.50;;;1.08;;
36445;SDS011;22472;50.848;-1.216;2023-06-26T00:07:02;7.53;;;0.80;;
36445;SDS011;22472;50.848;-1.216;2023-06-26T00:09:30;4.80;;;0.75;;
36445;SDS011;22472;50.848;-1.216;2023-06-26T00:11:57;5.95;;;0.90;;
36445;SDS011;22472;50.848;-1.216;2023-06-26T00:14:27;6.07;;;0.73;;
36445;SDS011;22472;50.848;-1.216;2023-06-26T00:16:54;8.43;;;0.73;;
36445;SDS011;22472;50.848;-1.216;2023-06-26T00:19:21;7.10;;;0.88;;
36445;SDS011;22472;50.848;-1.216;2023-06-26T00:21:49;5.88;;;0.75;;
36445;SDS011;22472;50.848;-1.216;2023-06-26T00:24:17;7.97;;;0.93;;
36445;SDS011;22472;50.848;-1.216;2023-06-26T00:26:46;7.68;;;0.88;;
36445;SDS011;22472;50.848;-1.216;2023-06-26T00:29:14;5.57;;;0.90;;
36445;SDS011;22472;50.848;-1.216;2023-06-26T00:31:43;7.15;;;1.00;;
36445;SDS011;22472;50.848;-1.216;2023-06-26T00:34:10;5.25;;;0.80;;
36445;SDS011;22472;50.848;-1.216;2023-06-26T00:36:37;5.65;;;0.90;;
36445;SDS011;22472;50.848;-1.216;2023-06-26T00:39:08;8.52;;;1.10;;
36445;SDS011;22472;50.848;-1.216;2023-06-26T00:41:36;6.28;;;1.00;;
36445;SDS011;22472;50.848;-1.216;2023-06-26T00:44:03;8.48;;;1.20;;
36445;SDS011;22472;50.848;-1.216;2023-06-26T00:46:31;3.85;;;0.80;;
36445;SDS011;22472;50.848;-1.216;2023-06-26T00:49:00;7.15;;;0.85;;
36445;SDS011;22472;50.848;-1.216;2023-06-26T00:51:29;6.75;;;1.05;;
36445;SDS011;22472;50.848;-1.216;2023-06-26T00:53:57;4.85;;;0.82;;
36445;SDS011;22472;50.848;-1.216;2023-06-26T00:56:24;7.20;;;1.17;;
36445;SDS011;22472;50.848;-1.216;2023-06-26T00:58:52;6.72;;;1.20;;
36445;SDS011;22472;50.848;-1.216;2023-06-26T01:01:19;6.85;;;0.90;;
36445;SDS011;22472;50.848;-1.216;2023-06-26T01:03:51;5.93;;;1.05;;
36445;SDS011;22472;50.848;-1.216;2023-06-26T01:06:20;5.15;;;0.90;;
36445;SDS011;22472;50.848;-1.216;2023-06-26T01:08:48;7.95;;;0.90;;
36445;SDS011;22472;50.848;-1.216;2023-06-26T01:11:16;5.80;;;0.90;;
36445;SDS011;22472;50.848;-1.216;2023-06-26T01:13:43;5.65;;;1.00;;
36445;SDS011;22472;50.848;-1.216;2023-06-26T01:16:11;4.07;;;0.80;;
36445;SDS011;22472;50.848;-1.216;2023-06-26T01:18:39;11.18;;;1.23;;
36445;SDS011;22472;50.848;-1.216;2023-06-26T01:21:08;6.28;;;0.80;;
36445;SDS011;22472;50.848;-1.216;2023-06-26T01:23:41;4.43;;;0.80;;
36445;SDS011;22472;50.848;-1.216;2023-06-26T01:26:18;8.85;;;1.20;;
36445;SDS011;22472;50.848;-1.216;2023-06-26T01:28:46;7.60;;;1.15;;
36445;SDS011;22472;50.848;-1.216;2023-06-26T01:31:13;5.80;;;1.00;;
36445;SDS011;22472;50.848;-1.216;2023-06-26T01:33:42;4.63;;;0.70;;
36445;SDS011;22472;50.848;-1.216;2023-06-26T01:36:10;6.20;;;1.00;;
36445;SDS011;22472;50.848;-1.216;2023-06-26T01:38:37;5.75;;;1.00;;
36445;SDS011;22472;50.848;-1.216;2023-06-26T01:41:05;3.60;;;0.77;;
36445;SDS011;22472;50.848;-1.216;2023-06-26T01:43:35;5.32;;;0.98;;
36445;SDS011;22472;50.848;-1.216;2023-06-26T01:46:06;5.55;;;0.90;;
36445;SDS011;22472;50.848;-1.216;2023-06-26T01:48:51;5.03;;;0.88;;
36445;SDS011;22472;50.848;-1.216;2023-06-26T01:51:22;8.40;;;1.00;;
36445;SDS011;22472;50.848;-1.216;2023-06-26T01:53:54;7.65;;;1.02;;
36445;SDS011;22472;50.848;-1.216;2023-06-26T01:56:24;6.60;;;1.17;;
36445;SDS011;22472;50.848;-1.216;2023-06-26T01:58:53;6.15;;;1.00;;
36445;SDS011;22472;50.848;-1.216;2023-06-26T02:01:21;6.38;;;1.20;;
36445;SDS011;22472;50.848;-1.216;2023-06-26T02:03:48;6.18;;;0.90;;
36445;SDS011;22472;50.848;-1.216;2023-06-26T02:06:15;6.18;;;1.00;;
36445;SDS011;22472;50.848;-1.216;2023-06-26T02:08:45;4.53;;;0.70;;
36445;SDS011;22472;50.848;-1.216;2023-06-26T02:11:12;4.10;;;0.90;;
36445;SDS011;22472;50.848;-1.216;2023-06-26T02:13:40;6.07;;;0.90;;
36445;SDS011;22472;50.848;-1.216;2023-06-26T02:16:09;3.08;;;0.90;;
36445;SDS011;22472;50.848;-1.216;2023-06-26T02:18:36;5.00;;;0.85;;
36445;SDS011;22472;50.848;-1.216;2023-06-26T02:21:03;5.65;;;0.88;;
36445;SDS011;22472;50.848;-1.216;2023-06-26T02:23:31;5.70;;;0.90;;
36445;SDS011;22472;50.848;-1.216;2023-06-26T02:25:59;5.80;;;1.02;;
36445;SDS011;22472;50.848;-1.216;2023-06-26T02:28:26;5.97;;;1.00;;
36445;SDS011;22472;50.848;-1.216;2023-06-26T02:30:53;7.90;;;1.00;;
36445;SDS011;22472;50.848;-1.216;2023-06-26T02:33:23;4.70;;;1.05;;
36445;SDS011;22472;50.848;-1.216;2023-06-26T02:35:50;4.13;;;0.93;;
36445;SDS011;22472;50.848;-1.216;2023-06-26T02:38:18;5.55;;;1.42;;
36445;SDS011;22472;50.848;-1.216;2023-06-26T02:40:45;5.70;;;0.90;;
36445;SDS011;22472;50.848;-1.216;2023-06-26T02:43:13;5.65;;;1.05;;
36445;SDS011;22472;50.848;-1.216;2023-06-26T02:45:41;7.75;;;1.17;;
36445;SDS011;22472;50.848;-1.216;2023-06-26T02:48:08;9.02;;;1.48;;
36445;SDS011;22472;50.848;-1.216;2023-06-26T02:50:37;4.47;;;1.05;;
36445;SDS011;22472;50.848;-1.216;2023-06-26T02:53:04;5.32;;;0.90;;
36445;SDS011;22472;50.848;-1.216;2023-06-26T02:55:33;5.78;;;1.38;;
36445;SDS011;22472;50.848;-1.216;2023-06-26T02:58:00;5.70;;;1.48;;
36445;SDS011;22472;50.848;-1.216;2023-06-26T03:00:28;4.45;;;0.90;;
36445;SDS011;22472;50.848;-1.216;2023-06-26T03:02:55;7.05;;;1.30;;
36445;SDS011;22472;50.848;-1.216;2023-06-26T03:05:23;5.55;;;1.13;;
36445;SDS011;22472;50.848;-1.216;2023-06-26T03:07:52;7.90;;;1.30;;
36445;SDS011;22472;50.848;-1.216;2023-06-26T03:10:19;7.85;;;1.52;;
36445;SDS011;22472;50.848;-1.216;2023-06-26T03:12:46;6.75;;;1.13;;
36445;SDS011;22472;50.848;-1.216;2023-06-26T03:15:14;6.05;;;1.25;;
36445;SDS011;22472;50.848;-1.216;2023-06-26T03:17:41;4.40;;;1.10;;
36445;SDS011;22472;50.848;-1.216;2023-06-26T03:20:09;6.28;;;1.10;;
36445;SDS011;22472;50.848;-1.216;2023-06-26T03:22:36;8.90;;;1.40;;
36445;SDS011;22472;50.848;-1.216;2023-06-26T03:25:05;5.03;;;0.95;;
36445;SDS011;22472;50.848;-1.216;2023-06-26T03:27:33;7.60;;;1.27;;
36445;SDS011;22472;50.848;-1.216;2023-06-26T03:30:01;5.90;;;1.20;;
36445;SDS011;22472;50.848;-1.216;2023-06-26T03:32:28;6.55;;;1.38;;
36445;SDS011;22472;50.848;-1.216;2023-06-26T03:34:56;5.43;;;1.30;;
36445;SDS011;22472;50.848;-1.216;2023-06-26T03:37:23;6.30;;;1.33;;
36445;SDS011;22472;50.848;-1.216;2023-06-26T03:39:50;6.25;;;1.05;;
36445;SDS011;22472;50.848;-1.216;2023-06-26T03:42:19;6.72;;;1.35;;
36445;SDS011;22472;50.848;-1.216;2023-06-26T03:44:47;7.32;;;1.17;;
36445;SDS011;22472;50.848;-1.216;2023-06-26T03:47:14;6.10;;;1.27;;
36445;SDS011;22472;50.848;-1.216;2023-06-26T03:49:41;6.18;;;1.70;;
36445;SDS011;22472;50.848;-1.216;2023-06-26T03:52:09;7.05;;;1.23;;
36445;SDS011;22472;50.848;-1.216;2023-06-26T03:54:36;7.13;;;1.20;;
36445;SDS011;22472;50.848;-1.216;2023-06-26T03:57:04;7.28;;;1.50;;
36445;SDS011;22472;50.848;-1.216;2023-06-26T03:59:33;8.25;;;1.30;;
36445;SDS011;22472;50.848;-1.216;2023-06-26T04:02:00;6.07;;;1.40;;
36445;SDS011;22472;50.848;-1.216;2023-06-26T04:04:28;6.68;;;1.38;;
36445;SDS011;22472;50.848;-1.216;2023-06-26T04:06:56;9.38;;;1.77;;
36445;SDS011;22472;50.848;-1.216;2023-06-26T04:09:24;5.97;;;1.25;;
36445;SDS011;22472;50.848;-1.216;2023-06-26T04:11:51;5.30;;;1.08;;
36445;SDS011;22472;50.848;-1.216;2023-06-26T04:14:19;7.07;;;1.55;;
36445;SDS011;22472;50.848;-1.216;2023-06-26T04:16:47;6.43;;;0.77;;
36445;SDS011;22472;50.848;-1.216;2023-06-26T04:19:15;6.80;;;1.10;;
36445;SDS011;22472;50.848;-1.216;2023-06-26T04:21:42;7.20;;;1.50;;
36445;SDS011;22472;50.848;-1.216;2023-06-26T04:24:09;6.53;;;1.23;;
36445;SDS011;22472;50.848;-1.216;2023-06-26T04:26:37;6.95;;;1.70;;
36445;SDS011;22472;50.848;-1.216;2023-06-26T04:29:06;13.50;;;1.80;;
36445;SDS011;22472;50.848;-1.216;2023-06-26T04:31:33;9.32;;;1.58;;
36445;SDS011;22472;50.848;-1.216;2023-06-26T04:34:02;6.70;;;1.45;;
36445;SDS011;22472;50.848;-1.216;2023-06-26T04:36:29;7.28;;;1.55;;
36445;SDS011;22472;50.848;-1.216;2023-06-26T04:38:58;6.82;;;1.30;;
36445;SDS011;22472;50.848;-1.216;2023-06-26T04:41:28;7.82;;;1.65;;
36445;SDS011;22472;50.848;-1.216;2023-06-26T04:43:56;8.65;;;1.60;;
36445;SDS011;22472;50.848;-1.216;2023-06-26T04:46:23;5.93;;;1.65;;
36445;SDS011;22472;50.848;-1.216;2023-06-26T04:48:53;5.95;;;1.38;;
36445;SDS011;22472;50.848;-1.216;2023-06-26T04:51:24;4.17;;;0.83;;
36445;SDS011;22472;50.848;-1.216;2023-06-26T04:53:52;7.40;;;1.45;;
36445;SDS011;22472;50.848;-1.216;2023-06-26T04:56:19;5.32;;;1.27;;
36445;SDS011;22472;50.848;-1.216;2023-06-26T04:58:47;8.15;;;1.85;;
36445;SDS011;22472;50.848;-1.216;2023-06-26T05:01:14;8.25;;;1.45;;
36445;SDS011;22472;50.848;-1.216;2023-06-26T05:03:42;7.95;;;1.67;;
36445;SDS011;22472;50.848;-1.216;2023-06-26T05:06:11;9.82;;;1.77;;
36445;SDS011;22472;50.848;-1.216;2023-06-26T05:08:39;9.23;;;1.48;;
36445;SDS011;22472;50.848;-1.216;2023-06-26T05:11:07;10.23;;;1.95;;
36445;SDS011;22472;50.848;-1.216;2023-06-26T05:22:27;7.82;;;1.75;;
36445;SDS011;22472;50.848;-1.216;2023-06-26T05:25:02;6.90;;;1.30;;
36445;SDS011;22472;50.848;-1.216;2023-06-26T05:36:47;10.85;;;1.60;;
36445;SDS011;22472;50.848;-1.216;2023-06-26T05:42:22;11.98;;;1.75;;
36445;SDS011;22472;50.848;-1.216;2023-06-26T05:44:50;8.63;;;1.40;;
36445;SDS011;22472;50.848;-1.216;2023-06-26T05:47:18;7.50;;;1.30;;
36445;SDS011;22472;50.848;-1.216;2023-06-26T05:49:45;8.60;;;1.17;;
36445;SDS011;22472;50.848;-1.216;2023-06-26T05:52:13;8.80;;;1.65;;
36445;SDS011;22472;50.848;-1.216;2023-06-26T05:54:40;8.63;;;1.38;;
36445;SDS011;22472;50.848;-1.216;2023-06-26T05:57:08;7.35;;;1.30;;
36445;SDS011;22472;50.848;-1.216;2023-06-26T05:59:37;10.05;;;1.50;;
36445;SDS011;22472;50.848;-1.216;2023-06-26T06:02:06;7.05;;;1.50;;
36445;SDS011;22472;50.848;-1.216;2023-06-26T06:04:34;6.03;;;1.13;;
36445;SDS011;22472;50.848;-1.216;2023-06-26T06:07:02;7.57;;;1.42;;
36445;SDS011;22472;50.848;-1.216;2023-06-26T06:09:31;7.22;;;1.23;;
36445;SDS011;22472;50.848;-1.216;2023-06-26T06:11:58;10.40;;;1.33;;
36445;SDS011;22472;50.848;-1.216;2023-06-26T06:14:26;12.20;;;1.73;;
36445;SDS011;22472;50.848;-1.216;2023-06-26T06:16:55;7.88;;;1.30;;
36445;SDS011;22472;50.848;-1.216;2023-06-26T06:19:23;11.38;;;1.27;;
36445;SDS011;22472;50.848;-1.216;2023-06-26T06:21:50;10.13;;;1.50;;
36445;SDS011;22472;50.848;-1.216;2023-06-26T06:24:17;10.80;;;1.55;;
36445;SDS011;22472;50.848;-1.216;2023-06-26T06:26:45;9.60;;;1.30;;
36445;SDS011;22472;50.848;-1.216;2023-06-26T06:29:12;12.05;;;1.63;;
36445;SDS011;22472;50.848;-1.216;2023-06-26T06:31:39;11.18;;;1.70;;
36445;SDS011;22472;50.848;-1.216;2023-06-26T06:34:08;11.80;;;1.70;;
36445;SDS011;22472;50.848;-1.216;2023-06-26T06:36:35;12.00;;;1.48;;
36445;SDS011;22472;50.848;-1.216;2023-06-26T06:39:03;11.65;;;1.45;;
36445;SDS011;22472;50.848;-1.216;2023-06-26T06:41:30;10.55;;;1.42;;
36445;SDS011;22472;50.848;-1.216;2023-06-26T06:43:58;10.43;;;1.55;;
36445;SDS011;22472;50.848;-1.216;2023-06-26T06:46:25;9.00;;;1.67;;
36445;SDS011;22472;50.848;-1.216;2023-06-26T06:48:52;11.52;;;1.63;;
36445;SDS011;22472;50.848;-1.216;2023-06-26T06:51:21;8.25;;;1.40;;
36445;SDS011;22472;50.848;-1.216;2023-06-26T06:53:49;12.35;;;1.27;;
36445;SDS011;22472;50.848;-1.216;2023-06-26T06:56:16;9.07;;;1.25;;
36445;SDS011;22472;50.848;-1.216;2023-06-26T06:58:44;9.15;;;1.58;;
36445;SDS011;22472;50.848;-1.216;2023-06-26T07:01:11;7.78;;;1.30;;
36445;SDS011;22472;50.848;-1.216;2023-06-26T07:03:39;10.90;;;1.60;;
36445;SDS011;22472;50.848;-1.216;2023-06-26T07:06:06;7.65;;;1.30;;
36445;SDS011;22472;50.848;-1.216;2023-06-26T07:08:35;7.28;;;1.30;;
36445;SDS011;22472;50.848;-1.216;2023-06-26T07:11:02;10.98;;;1.30;;
36445;SDS011;22472;50.848;-1.216;2023-06-26T07:13:31;10.10;;;1.38;;
36445;SDS011;22472;50.848;-1.216;2023-06-26T07:15:58;12.02;;;1.40;;
36445;SDS011;22472;50.848;-1.216;2023-06-26T07:18:25;13.32;;;1.70;;
36445;SDS011;22472;50.848;-1.216;2023-06-26T07:20:52;8.60;;;1.25;;
36445;SDS011;22472;50.848;-1.216;2023-06-26T07:23:20;14.73;;;1.50;;
36445;SDS011;22472;50.848;-1.216;2023-06-26T07:25:48;9.88;;;1.40;;
36445;SDS011;22472;50.848;-1.216;2023-06-26T07:28:16;7.95;;;1.35;;
36445;SDS011;22472;50.848;-1.216;2023-06-26T07:30:43;10.65;;;1.55;;
36445;SDS011;22472;50.848;-1.216;2023-06-26T07:33:10;9.48;;;1.40;;
36445;SDS011;22472;50.848;-1.216;2023-06-26T07:35:38;10.63;;;1.65;;
36445;SDS011;22472;50.848;-1.216;2023-06-26T07:38:05;11.85;;;1.45;;
36445;SDS011;22472;50.848;-1.216;2023-06-26T07:40:33;10.57;;;1.40;;
36445;SDS011;22472;50.848;-1.216;2023-06-26T07:43:01;6.32;;;0.90;;
36445;SDS011;22472;50.848;-1.216;2023-06-26T07:45:29;6.95;;;1.30;;
36445;SDS011;22472;50.848;-1.216;2023-06-26T07:47:56;4.78;;;0.90;;
36445;SDS011;22472;50.848;-1.216;2023-06-26T07:50:23;7.55;;;1.00;;
36445;SDS011;22472;50.848;-1.216;2023-06-26T07:52:51;9.05;;;1.05;;
36445;SDS011;22472;50.848;-1.216;2023-06-26T07:55:18;7.85;;;1.10;;
36445;SDS011;22472;50.848;-1.216;2023-06-26T07:57:46;9.63;;;1.30;;
36445;SDS011;22472;50.848;-1.216;2023-06-26T08:00:15;7.05;;;0.93;;
36445;SDS011;22472;50.848;-1.216;2023-06-26T08:02:42;4.40;;;0.73;;
36445;SDS011;22472;50.848;-1.216;2023-06-26T08:05:11;11.63;;;1.60;;
36445;SDS011;22472;50.848;-1.216;2023-06-26T08:07:38;7.38;;;1.17;;
36445;SDS011;22472;50.848;-1.216;2023-06-26T08:10:06;8.35;;;0.90;;
36445;SDS011;22472;50.848;-1.216;2023-06-26T08:12:33;7.07;;;0.80;;
36445;SDS011;22472;50.848;-1.216;2023-06-26T08:15:02;7.68;;;1.10;;
36445;SDS011;22472;50.848;-1.216;2023-06-26T08:17:31;7.95;;;1.13;;
36445;SDS011;22472;50.848;-1.216;2023-06-26T08:19:58;9.32;;;1.20;;
36445;SDS011;22472;50.848;-1.216;2023-06-26T08:22:26;5.50;;;1.00;;
36445;SDS011;22472;50.848;-1.216;2023-06-26T08:24:53;7.40;;;0.90;;
36445;SDS011;22472;50.848;-1.216;2023-06-26T08:27:21;6.43;;;1.00;;
36445;SDS011;22472;50.848;-1.216;2023-06-26T08:29:48;5.25;;;1.00;;
36445;SDS011;22472;50.848;-1.216;2023-06-26T08:32:16;5.05;;;1.05;;
36445;SDS011;22472;50.848;-1.216;2023-06-26T08:34:45;6.90;;;1.05;;
36445;SDS011;22472;50.848;-1.216;2023-06-26T08:37:12;6.75;;;1.00;;
36445;SDS011;22472;50.848;-1.216;2023-06-26T08:39:39;6.32;;;0.80;;
36445;SDS011;22472;50.848;-1.216;2023-06-26T08:42:07;7.28;;;1.20;;
36445;SDS011;22472;50.848;-1.216;2023-06-26T08:44:34;5.95;;;0.90;;
36445;SDS011;22472;50.848;-1.216;2023-06-26T08:47:01;5.25;;;0.85;;
36445;SDS011;22472;50.848;-1.216;2023-06-26T08:49:33;7.10;;;0.90;;
36445;SDS011;22472;50.848;-1.216;2023-06-26T08:52:05;4.22;;;1.08;;
36445;SDS011;22472;50.848;-1.216;2023-06-26T08:54:34;5.88;;;0.80;;
36445;SDS011;22472;50.848;-1.216;2023-06-26T08:57:01;5.40;;;0.75;;
36445;SDS011;22472;50.848;-1.216;2023-06-26T08:59:30;4.07;;;0.65;;
36445;SDS011;22472;50.848;-1.216;2023-06-26T09:01:58;7.40;;;0.90;;
36445;SDS011;22472;50.848;-1.216;2023-06-26T09:04:25;3.30;;;0.82;;
36445;SDS011;22472;50.848;-1.216;2023-06-26T09:06:53;5.57;;;0.93;;
36445;SDS011;22472;50.848;-1.216;2023-06-26T09:09:21;6.28;;;0.70;;
36445;SDS011;22472;50.848;-1.216;2023-06-26T09:11:49;3.78;;;0.65;;
36445;SDS011;22472;50.848;-1.216;2023-06-26T09:14:16;4.15;;;0.55;;
36445;SDS011;22472;50.848;-1.216;2023-06-26T09:16:45;5.00;;;1.00;;
36445;SDS011;22472;50.848;-1.216;2023-06-26T09:19:12;4.72;;;1.08;;
36445;SDS011;22472;50.848;-1.216;2023-06-26T09:21:40;6.07;;;0.70;;
36445;SDS011;22472;50.848;-1.216;2023-06-26T09:24:09;5.03;;;0.80;;
36445;SDS011;22472;50.848;-1.216;2023-06-26T09:26:39;5.18;;;0.90;;
36445;SDS011;22472;50.848;-1.216;2023-06-26T09:29:07;4.18;;;0.60;;
36445;SDS011;22472;50.848;-1.216;2023-06-26T09:31:35;3.22;;;0.57;;
36445;SDS011;22472;50.848;-1.216;2023-06-26T09:34:03;3.92;;;0.73;;
